Oscoda, MI (48750)

9:09 AM EST on January 17, 2017 (GMT -0500)
Huron Shore - 1 mi north of Ausable Point | | Change Station

Elev 600 ft 44.36 °N, 83.34 °W | Updated 13 seconds ago

Ice Pellets
Ice Pellets
33.8 °F
Feels Like 26 °F
N
9.4
Wind Variable Wind from ENE

Today
High -- | Low -- °F
--% Chance of Precip.
Yesterday
High -- | Low -- °F
Precip. -- in
Pressure 29.88 in
Visibility 1.2 miles
Clouds Overcast 300 ft
Windchill 26 °F
Dew Point 34 °F
Humidity 99%
Rainfall 0.27 in
Snow Depth Not available.
8:04 AM 5:22 PM
Waning Gibbous, 72% visible
METAR KOSC 171354Z AUTO 05010KT 1 1/4SM UP OVC003 02/01 A2988 RMK AO2 P0002 T00190013
Pressure 29.88 in
Visibility 1.2 miles
Clouds Overcast 300 ft
Windchill 26 °F
Dew Point 34 °F
Humidity 99%
Rainfall 0.27 in
Snow Depth Not available.
8:04 AM 5:22 PM
Waning Gibbous, 72% visible
METAR KOSC 171354Z AUTO 05010KT 1 1/4SM UP OVC003 02/01 A2988 RMK AO2 P0002 T00190013

Get Your Daily Forecast Email!

Thanks for signing up!

Be on the lookout for a verification email in your inbox.

You'll start receiving the daily forecast at 8 AM.

×

10-Day Weather Forecast

Almanac

Astronomy

Jan. 17, 2017 Rise Set
Actual Time
Civil Twilight
Nautical Twilight
Astronomical Twilight
Moon
Length of Visible Light
Length of Day
Tomorrow will be .
, % of the Moon is Illuminated

Today's Extremes

State Highs State Lows

Community

WunderPhotos

Upload Photos

1,962,540 photos uploaded!

WunderBlog® & News

Nearby

Air Quality

  Air Quality AQ Index Pollutant
Not available.

Snow Depth

Station Depth Elevation

Earthquake Activity

City Distance Mag. Time & Date
Minimum magnitude displayed is 2.5.

Coastal Water Temperatures

Place Temperature

Stations

Nearby Weather Stations

Station Location Temp. Windchill Dew Point Humidity Wind Precip. Elev Updated Type
                   

Watches & Warnings

Winter Weather Advisory
Issued: 3:40 AM EST Jan. 17, 2017 – National Weather Service

... Winter Weather Advisory remains in effect until noon EST
today...

A Winter Weather Advisory remains in effect until noon EST today.

* Expect freezing rain to continue across much of the
area... diminishing and slowly changing to rain through this
morning.

* The greatest amount of ice accumulation will occur until 8 am
this morning.

* Additional ice accumulations up to 1/10 of an inch are
expected.

* The ice will result in very hazardous travel
conditions... .including during the morning commute.

Precautionary/preparedness actions...


Smd



Small Craft Advisory
Issued: 3:42 AM EST Jan. 17, 2017 – National Weather Service

... Small Craft Advisory in effect until 5 PM EST this afternoon...

The National Weather Service in Gaylord has issued a Small Craft
Advisory... which is in effect until 5 PM EST this afternoon.

* Please see the latest marine forecasts for more detailed
information.

Precautionary/preparedness actions

Inexperienced mariners... especially those operating smaller
vessels should avoid navigating in these conditions.